Time;durP1;ratioP1;P1;durP2;ratioP2;P2;SDS_P1;SDS_P2;PMS_P1;PMS_P2;Temp;Humidity;BMP_temperature;BMP_pressure;BME280_temperature;BME280_humidity;BME280_pressure;Samples;Min_cycle;Max_cycle;Signal;HPM_P1;HPM_P2
2021/08/12 00:01:04;;;;;;;16.10;9.82;;;;;;;16.47;77.73;102063.50;4965662;28;20018;-49
2021/08/12 00:03:29;;;;;;;19.63;10.45;;;;;;;16.46;77.98;102055.59;4966736;28;20225;-47
2021/08/12 00:05:55;;;;;;;17.13;10.23;;;;;;;16.44;78.08;102054.69;4961551;28;20455;-49
2021/08/12 00:08:20;;;;;;;15.00;9.32;;;;;;;16.40;78.08;102058.19;4966027;28;20512;-50
2021/08/12 00:10:50;;;;;;;14.65;9.77;;;;;;;16.39;78.14;102061.69;4966615;28;20033;-48
2021/08/12 00:13:19;;;;;;;17.42;10.20;;;;;;;16.39;78.38;102056.41;4965334;28;20564;-51
2021/08/12 00:15:44;;;;;;;19.90;11.15;;;;;;;16.39;78.20;102052.03;4965109;28;20363;-49
2021/08/12 00:18:09;;;;;;;18.92;10.88;;;;;;;16.36;78.60;102049.38;4961623;28;20038;-51
2021/08/12 00:20:35;;;;;;;16.45;9.85;;;;;;;16.39;78.57;102054.69;4976963;28;20038;-49
2021/08/12 00:23:00;;;;;;;15.45;9.60;;;;;;;16.35;78.40;102057.25;4963590;28;20632;-48
2021/08/12 00:25:25;;;;;;;13.95;10.05;;;;;;;16.31;78.61;102058.97;4963089;28;20441;-48
2021/08/12 00:27:51;;;;;;;20.58;10.90;;;;;;;16.31;78.59;102053.72;4960706;28;20476;-48
2021/08/12 00:30:16;;;;;;;18.55;10.25;;;;;;;16.28;78.80;102043.19;4960673;28;20031;-47
2021/08/12 00:32:41;;;;;;;17.63;10.77;;;;;;;16.29;78.75;102041.41;4966616;28;20034;-53
2021/08/12 00:35:08;;;;;;;17.45;10.93;;;;;;;16.29;78.85;102034.38;4963254;28;20137;-47
2021/08/12 00:37:33;;;;;;;17.65;11.05;;;;;;;16.27;78.99;102028.25;4964722;28;20177;-52
2021/08/12 00:39:59;;;;;;;15.18;10.48;;;;;;;16.28;78.91;102037.03;4967948;28;20039;-51
2021/08/12 00:42:24;;;;;;;16.42;10.15;;;;;;;16.29;78.82;102044.03;4967965;28;20582;-48
2021/08/12 00:44:50;;;;;;;15.52;9.75;;;;;;;16.27;78.71;102044.03;4963501;28;20532;-48
2021/08/12 00:47:15;;;;;;;19.45;10.98;;;;;;;16.24;78.38;102051.91;4963057;28;20026;-48
2021/08/12 00:49:40;;;;;;;15.43;10.45;;;;;;;16.20;78.66;102047.47;4974887;28;20056;-46
2021/08/12 00:52:06;;;;;;;16.25;10.82;;;;;;;16.24;79.09;102042.25;4963765;28;20109;-51
2021/08/12 00:54:35;;;;;;;15.65;10.25;;;;;;;16.21;79.27;102029.09;4970051;28;20038;-49
2021/08/12 00:57:02;;;;;;;16.95;10.40;;;;;;;16.27;79.28;102032.63;4963629;28;20050;-47
2021/08/12 00:59:35;;;;;;;14.38;8.88;;;;;;;16.31;78.83;102037.03;4973363;28;20318;-48
2021/08/12 01:02:00;;;;;;;16.48;10.13;;;;;;;16.28;79.07;102034.41;4966979;28;20035;-49
2021/08/12 01:04:26;;;;;;;18.92;11.90;;;;;;;16.21;79.15;102031.72;4965444;28;20036;-47
2021/08/12 01:06:58;;;;;;;17.05;11.90;;;;;;;16.18;79.17;102029.03;4961330;28;20419;-49
2021/08/12 01:09:54;;;;;;;18.63;10.75;;;;;;;16.18;79.48;102029.03;4980762;28;20038;-48
2021/08/12 01:12:43;;;;;;;19.50;12.75;;;;;;;16.14;79.56;102027.25;4969335;28;20074;-49
2021/08/12 01:15:12;;;;;;;20.75;11.43;;;;;;;16.06;79.55;102025.41;4977865;28;20476;-48
2021/08/12 01:17:43;;;;;;;18.70;11.43;;;;;;;16.09;79.36;102021.09;4986830;28;20113;-47
2021/08/12 01:20:33;;;;;;;21.67;11.68;;;;;;;16.09;79.42;102018.47;4965648;28;20027;-49
2021/08/12 01:22:59;;;;;;;19.63;12.27;;;;;;;16.07;79.53;102016.66;4963999;28;20039;-51
2021/08/12 01:25:27;;;;;;;19.35;12.07;;;;;;;16.06;79.75;102025.41;4980612;28;20031;-47
2021/08/12 01:28:03;;;;;;;19.65;11.40;;;;;;;16.07;79.38;102033.34;4966808;28;20085;-48
2021/08/12 01:30:31;;;;;;;19.95;11.90;;;;;;;16.06;79.72;102034.19;4968023;28;20049;-48
2021/08/12 01:33:14;;;;;;;24.35;14.00;;;;;;;16.08;79.52;102039.47;4965224;28;20038;-49
2021/08/12 01:35:40;;;;;;;23.90;14.27;;;;;;;16.07;79.74;102033.34;4963048;28;20046;-48
2021/08/12 01:38:08;;;;;;;23.63;14.18;;;;;;;16.02;80.03;102024.53;4965330;28;20221;-47
2021/08/12 01:40:35;;;;;;;21.17;13.43;;;;;;;16.10;80.08;102021.97;4965396;28;20092;-49
2021/08/12 01:43:03;;;;;;;22.83;13.70;;;;;;;16.09;79.95;102018.47;4963925;28;20121;-48
2021/08/12 01:45:29;;;;;;;23.50;12.68;;;;;;;16.14;79.98;102018.50;4980545;28;20104;-49
2021/08/12 01:47:56;;;;;;;19.20;11.15;;;;;;;16.13;80.00;102014.09;4964289;28;20034;-52
2021/08/12 01:50:22;;;;;;;24.75;13.90;;;;;;;16.13;80.09;102014.97;4968003;28;20137;-49
2021/08/12 01:52:50;;;;;;;26.35;16.02;;;;;;;16.11;80.35;102011.44;4965875;28;20026;-51
2021/08/12 01:55:18;;;;;;;26.45;16.98;;;;;;;16.12;80.15;102015.84;4967292;28;20979;-49
2021/08/12 01:57:43;;;;;;;22.58;14.95;;;;;;;16.08;80.31;102010.53;4963905;28;20038;-51
2021/08/12 02:00:13;;;;;;;32.50;19.08;;;;;;;16.05;80.72;102007.88;4969334;28;20482;-51
2021/08/12 02:02:40;;;;;;;29.52;17.08;;;;;;;16.13;80.50;102004.44;4977779;28;20046;-48
2021/08/12 02:05:10;;;;;;;25.77;14.50;;;;;;;16.11;80.31;101994.78;4970053;28;20198;-50
2021/08/12 02:07:36;;;;;;;32.40;17.63;;;;;;;15.77;81.94;101996.22;4966419;28;20057;-47
2021/08/12 02:10:01;;;;;;;25.13;14.68;;;;;;;16.05;80.97;101992.09;4968105;28;20540;-46
2021/08/12 02:12:27;;;;;;;30.38;17.95;;;;;;;16.06;81.00;101991.22;4971863;28;20482;-48
2021/08/12 02:14:52;;;;;;;28.73;14.77;;;;;;;16.08;80.64;101987.75;4963633;28;20367;-47
2021/08/12 02:17:17;;;;;;;31.27;18.58;;;;;;;16.12;80.54;101992.16;4961511;28;20062;-50
2021/08/12 02:19:43;;;;;;;29.45;16.88;;;;;;;16.12;80.72;101991.28;4969245;28;20226;-49
2021/08/12 02:22:13;;;;;;;26.35;15.10;;;;;;;16.16;80.67;101993.09;4968357;28;20026;-50
2021/08/12 02:24:53;;;;;;;24.45;15.75;;;;;;;16.19;80.68;102001.88;4966961;28;20121;-49
2021/08/12 02:27:21;;;;;;;21.70;13.75;;;;;;;16.21;80.38;102000.16;4961969;28;20380;-48
2021/08/12 02:29:52;;;;;;;24.17;13.70;;;;;;;16.22;80.40;101993.97;4963467;28;20034;-48
2021/08/12 02:32:18;;;;;;;22.00;13.00;;;;;;;16.24;80.23;101994.00;4966145;28;20034;-49
2021/08/12 02:34:43;;;;;;;27.33;14.25;;;;;;;16.22;80.13;101991.34;4968312;28;20035;-48
2021/08/12 02:37:11;;;;;;;29.40;17.17;;;;;;;16.19;80.10;101996.59;4964596;28;20093;-47
2021/08/12 02:39:39;;;;;;;26.80;16.33;;;;;;;16.13;80.19;101993.94;4965908;28;20026;-48
2021/08/12 02:42:05;;;;;;;26.15;16.17;;;;;;;16.05;80.04;101986.81;4962806;28;20703;-47
2021/08/12 02:44:31;;;;;;;25.52;16.00;;;;;;;16.02;80.22;101982.44;4965914;28;20030;-49
2021/08/12 02:46:58;;;;;;;25.55;15.23;;;;;;;15.99;80.13;101987.66;4964147;28;20026;-49
2021/08/12 02:49:27;;;;;;;25.73;15.48;;;;;;;15.97;80.27;101991.16;4961775;28;20331;-47
2021/08/12 02:51:53;;;;;;;26.10;14.88;;;;;;;15.94;80.36;101983.22;4964178;28;20073;-46
2021/08/12 02:54:19;;;;;;;29.75;16.15;;;;;;;15.90;80.26;101994.59;4973974;28;20027;-47
2021/08/12 02:56:45;;;;;;;27.92;17.02;;;;;;;15.82;80.39;101995.41;4977284;28;20108;-50
2021/08/12 02:59:11;;;;;;;28.77;17.10;;;;;;;15.79;80.20;101998.00;4971463;28;20080;-46
2021/08/12 03:01:38;;;;;;;28.73;17.95;;;;;;;15.71;80.50;101997.03;4964165;28;20312;-48
2021/08/12 03:04:04;;;;;;;29.73;17.83;;;;;;;15.67;80.58;102000.53;4965452;28;20113;-49
2021/08/12 03:06:30;;;;;;;29.73;16.35;;;;;;;15.62;80.78;101994.31;4962941;28;20488;-47
2021/08/12 03:08:56;;;;;;;27.35;16.23;;;;;;;15.61;80.88;101986.44;4967119;28;20105;-48
2021/08/12 03:11:22;;;;;;;27.25;16.67;;;;;;;15.55;80.92;101984.63;4964281;28;20045;-50
2021/08/12 03:13:48;;;;;;;25.95;15.95;;;;;;;15.51;80.99;101990.66;4966579;28;20027;-48
2021/08/12 03:16:13;;;;;;;25.65;16.05;;;;;;;15.41;81.22;101991.44;4960893;28;20142;-46
2021/08/12 03:18:39;;;;;;;26.25;16.15;;;;;;;15.41;80.98;101994.94;4967400;28;20030;-48
2021/08/12 03:21:09;;;;;;;22.60;13.68;;;;;;;15.41;81.18;102000.19;4967191;28;20130;-48
2021/08/12 03:23:35;;;;;;;24.60;15.38;;;;;;;15.38;81.24;102000.13;4965793;28;20041;-52
2021/08/12 03:26:00;;;;;;;30.80;17.15;;;;;;;15.36;81.46;102004.53;4965745;28;20486;-50
2021/08/12 03:28:26;;;;;;;28.45;16.30;;;;;;;15.37;81.52;101997.50;4962124;28;21786;-49
2021/08/12 03:30:51;;;;;;;27.33;16.88;;;;;;;15.36;81.79;101999.25;4968926;28;20480;-50
2021/08/12 03:33:16;;;;;;;20.75;13.32;;;;;;;15.41;81.46;102007.19;4965834;28;20502;-49
2021/08/12 03:35:42;;;;;;;23.05;15.20;;;;;;;15.41;81.66;102004.56;4966692;28;20028;-50
2021/08/12 03:38:07;;;;;;;29.05;16.65;;;;;;;15.41;82.01;102001.94;4969357;28;20035;-47
2021/08/12 03:40:32;;;;;;;27.77;16.15;;;;;;;15.47;81.86;101998.50;4962960;28;20030;-49
2021/08/12 03:42:58;;;;;;;36.92;19.65;;;;;;;15.47;82.29;101999.38;4980562;28;20029;-47
2021/08/12 03:45:23;;;;;;;30.27;16.30;;;;;;;15.51;82.64;101989.78;4963197;28;20137;-48
2021/08/12 03:47:49;;;;;;;32.20;16.23;;;;;;;15.55;82.18;101981.09;4964817;28;20037;-47
2021/08/12 03:50:16;;;;;;;29.95;17.33;;;;;;;15.60;82.10;101996.06;4968516;28;20023;-47
2021/08/12 03:52:41;;;;;;;24.75;13.77;;;;;;;15.61;81.98;101995.19;4964292;28;20053;-48
2021/08/12 03:55:07;;;;;;;29.70;16.30;;;;;;;15.62;81.92;101996.94;4962850;28;21263;-49
2021/08/12 03:57:33;;;;;;;28.25;15.63;;;;;;;15.64;82.09;101997.84;4960538;28;20129;-48
2021/08/12 03:59:58;;;;;;;26.25;14.60;;;;;;;15.67;82.04;101997.00;4963731;28;20077;-47
2021/08/12 04:02:23;;;;;;;29.08;15.57;;;;;;;15.70;82.10;101986.50;4958708;28;20176;-47
2021/08/12 04:04:49;;;;;;;29.90;14.35;;;;;;;15.76;82.22;101999.72;4962901;28;20084;-46
2021/08/12 04:07:14;;;;;;;33.78;16.35;;;;;;;15.79;82.28;102000.66;4963260;28;20089;-47
2021/08/12 04:09:40;;;;;;;36.22;17.67;;;;;;;15.82;82.47;101990.13;4964712;28;20053;-49
2021/08/12 04:12:06;;;;;;;30.10;15.10;;;;;;;15.87;82.42;101991.91;4965324;28;20026;-47
2021/08/12 04:14:32;;;;;;;46.53;19.08;;;;;;;15.93;82.50;101994.59;4964708;28;20799;-47
2021/08/12 04:16:57;;;;;;;39.67;19.35;;;;;;;16.00;82.49;101999.06;4962772;28;20030;-49
2021/08/12 04:19:25;;;;;;;33.30;16.38;;;;;;;16.10;82.20;101999.16;4958689;28;20065;-50
2021/08/12 04:21:50;;;;;;;33.58;16.33;;;;;;;16.13;81.91;102004.44;4967267;28;20034;-48
2021/08/12 04:24:15;;;;;;;30.08;15.77;;;;;;;16.14;81.46;101997.44;4962871;28;21148;-51
2021/08/12 04:26:42;;;;;;;25.67;13.27;;;;;;;16.15;81.65;101996.56;4965828;28;20030;-48
2021/08/12 04:29:07;;;;;;;28.85;15.20;;;;;;;16.15;81.53;102004.47;4969118;28;20035;-47
2021/08/12 04:31:33;;;;;;;30.23;16.38;;;;;;;16.15;81.70;101996.56;4963224;28;20057;-50
2021/08/12 04:33:58;;;;;;;31.35;15.27;;;;;;;16.15;81.50;101999.22;4968666;28;20041;-47
2021/08/12 04:36:23;;;;;;;30.75;16.23;;;;;;;16.14;81.45;101997.44;4955090;28;20423;-49
2021/08/12 04:38:49;;;;;;;37.17;19.23;;;;;;;16.14;81.56;102003.59;4967932;28;20088;-45
2021/08/12 04:41:15;;;;;;;36.95;19.10;;;;;;;16.12;81.90;102007.94;4975257;28;20493;-47
2021/08/12 04:43:40;;;;;;;34.38;19.60;;;;;;;16.10;82.19;102004.41;4961964;28;20780;-50
2021/08/12 04:46:05;;;;;;;38.85;20.10;;;;;;;16.12;82.39;102007.94;4963982;28;20026;-50
2021/08/12 04:48:31;;;;;;;42.33;20.48;;;;;;;16.18;82.18;102015.00;4961138;28;20038;-48
2021/08/12 04:50:56;;;;;;;40.78;19.90;;;;;;;16.27;82.11;102014.22;4963034;28;20370;-47
2021/08/12 04:53:21;;;;;;;34.22;17.48;;;;;;;16.28;81.99;102018.63;4965333;28;20160;-48
2021/08/12 04:55:46;;;;;;;43.88;20.92;;;;;;;16.34;82.05;102022.19;4964263;28;20273;-49
2021/08/12 04:58:12;;;;;;;38.30;20.13;;;;;;;16.40;81.84;102023.97;4966158;28;20085;-48
2021/08/12 05:00:37;;;;;;;40.33;18.65;;;;;;;16.41;81.54;102016.06;4966241;28;20070;-47
2021/08/12 05:03:03;;;;;;;40.65;18.92;;;;;;;16.45;81.58;102012.59;4963318;28;20039;-47
2021/08/12 05:05:28;;;;;;;32.03;17.42;;;;;;;16.52;81.38;102011.78;4964534;28;20322;-50
2021/08/12 05:07:54;;;;;;;42.50;21.27;;;;;;;16.52;81.44;102003.88;4965113;28;20561;-51
2021/08/12 05:10:19;;;;;;;41.13;19.83;;;;;;;16.55;81.46;102003.00;4960532;28;20143;-48
2021/08/12 05:12:45;;;;;;;38.30;19.38;;;;;;;16.59;81.12;102000.44;4967957;28;20186;-49
2021/08/12 05:15:10;;;;;;;32.85;17.35;;;;;;;16.63;80.87;102006.63;4961315;28;20136;-49
2021/08/12 05:17:36;;;;;;;36.58;19.15;;;;;;;16.62;80.68;102008.38;4961681;28;20034;-54
2021/08/12 05:20:01;;;;;;;38.30;19.00;;;;;;;16.67;80.67;102008.38;4963332;28;20096;-47
2021/08/12 05:22:26;;;;;;;36.80;19.00;;;;;;;16.77;80.74;102010.19;4965648;28;20061;-50
2021/08/12 05:24:52;;;;;;;39.08;19.15;;;;;;;16.79;80.28;102011.09;4970078;28;20116;-49
2021/08/12 05:27:18;;;;;;;34.67;19.42;;;;;;;16.84;80.16;102013.75;4957506;28;20046;-51
2021/08/12 05:29:43;;;;;;;32.28;17.73;;;;;;;16.88;79.99;102008.53;4970523;28;20026;-49
2021/08/12 05:32:12;;;;;;;31.38;17.90;;;;;;;16.93;79.59;102013.81;4969970;28;20117;-48
2021/08/12 05:34:37;;;;;;;33.00;17.58;;;;;;;16.97;79.46;102010.31;4980876;28;20080;-49
2021/08/12 05:37:03;;;;;;;29.13;16.50;;;;;;;17.02;79.60;102017.38;4966636;28;20601;-50
2021/08/12 05:39:28;;;;;;;35.88;18.45;;;;;;;17.06;79.24;102015.66;4967323;28;20554;-49
2021/08/12 05:41:53;;;;;;;27.90;17.02;;;;;;;17.10;79.01;102020.06;4963720;28;20027;-48
2021/08/12 05:44:19;;;;;;;32.35;17.05;;;;;;;17.18;79.04;102017.47;4969229;28;20084;-47
2021/08/12 05:46:44;;;;;;;32.95;16.73;;;;;;;17.26;78.47;102019.22;4965863;28;20038;-48
2021/08/12 05:49:11;;;;;;;31.05;17.80;;;;;;;17.38;78.39;102014.00;4964686;28;20026;-51
2021/08/12 05:51:37;;;;;;;30.70;17.63;;;;;;;17.50;78.09;102022.84;4964468;28;20030;-49
2021/08/12 05:54:03;;;;;;;26.17;15.85;;;;;;;17.67;78.19;102016.78;4974210;28;20070;-49
2021/08/12 05:56:28;;;;;;;29.42;16.05;;;;;;;17.83;77.56;102020.31;4962557;28;20150;-48
2021/08/12 05:58:54;;;;;;;27.15;16.40;;;;;;;17.99;76.88;102013.31;4964028;28;20446;-47
2021/08/12 06:01:19;;;;;;;28.27;15.95;;;;;;;18.15;76.54;102015.97;4962489;28;20117;-52
2021/08/12 06:03:44;;;;;;;30.85;16.63;;;;;;;18.24;75.22;102018.59;4965829;28;20030;-52
2021/08/12 06:06:10;;;;;;;28.90;15.77;;;;;;;18.37;74.85;102022.13;4958596;28;20060;-49
2021/08/12 06:08:35;;;;;;;27.10;16.40;;;;;;;18.47;74.12;102020.38;4966538;28;20059;-50
2021/08/12 06:11:00;;;;;;;24.15;14.35;;;;;;;18.61;73.58;102021.25;4972035;28;20079;-49
2021/08/12 06:13:26;;;;;;;23.67;14.73;;;;;;;18.89;72.68;102020.31;4965573;28;20363;-48
2021/08/12 06:15:51;;;;;;;23.55;13.52;;;;;;;19.59;70.62;102024.47;4968139;28;20027;-49
2021/08/12 06:18:16;;;;;;;21.17;12.35;;;;;;;20.83;67.37;102028.78;4958075;28;20552;-49
2021/08/12 06:20:42;;;;;;;19.77;12.32;;;;;;;22.38;60.64;102017.84;4968603;28;20033;-47
2021/08/12 06:23:08;;;;;;;20.02;11.38;;;;;;;23.79;56.79;102017.66;4962657;28;20026;-50
2021/08/12 06:25:35;;;;;;;15.15;10.52;;;;;;;24.76;54.47;102022.38;4965249;28;20438;-51
2021/08/12 06:28:01;;;;;;;15.60;10.05;;;;;;;25.88;50.49;102023.53;4964278;28;20081;-49
2021/08/12 06:30:26;;;;;;;17.95;10.07;;;;;;;26.39;48.57;102012.97;4967737;28;20133;-48
2021/08/12 06:32:52;;;;;;;13.73;9.40;;;;;;;26.90;47.29;102013.81;4970102;28;20044;-46
2021/08/12 06:35:18;;;;;;;11.93;8.82;;;;;;;27.27;47.31;102009.75;4962481;28;20077;-49
2021/08/12 06:37:48;;;;;;;13.60;8.43;;;;;;;27.69;45.11;102004.59;4965675;28;20068;-49
2021/08/12 06:40:24;;;;;;;16.58;8.77;;;;;;;27.49;45.38;102016.06;4968558;28;20414;-50
2021/08/12 06:42:51;;;;;;;15.45;8.10;;;;;;;27.42;47.48;102015.41;4965083;28;20048;-47
2021/08/12 06:45:20;;;;;;;12.38;7.90;;;;;;;27.56;45.62;102022.94;4955698;28;20028;-49
2021/08/12 06:47:48;;;;;;;12.60;7.50;;;;;;;27.21;46.45;102018.91;4962414;28;20418;-51
2021/08/12 06:50:15;;;;;;;12.98;6.85;;;;;;;27.19;46.14;102020.78;4963400;28;20026;-51
2021/08/12 06:52:41;;;;;;;12.65;7.15;;;;;;;27.45;45.11;102017.09;4978090;28;21274;-48
2021/08/12 06:55:06;;;;;;;9.18;6.53;;;;;;;27.81;45.17;102022.84;4960692;28;20032;-49
2021/08/12 06:57:32;;;;;;;9.25;6.28;;;;;;;28.35;43.00;102018.84;4965541;28;20038;-49
2021/08/12 06:59:57;;;;;;;11.07;6.55;;;;;;;28.14;44.82;102012.56;4967030;28;20425;-48
2021/08/12 07:02:23;;;;;;;10.00;5.93;;;;;;;28.41;42.30;102027.50;4965211;28;20057;-49
2021/08/12 07:04:48;;;;;;;9.68;6.05;;;;;;;27.79;43.69;102022.91;4962932;28;20109;-46
2021/08/12 07:07:13;;;;;;;11.05;5.63;;;;;;;27.55;44.12;102020.31;4950918;28;20137;-46
2021/08/12 07:09:39;;;;;;;8.52;5.15;;;;;;;27.55;44.89;102020.31;4965498;28;20383;-46
2021/08/12 07:12:05;;;;;;;9.68;5.60;;;;;;;27.26;46.63;102014.28;4972009;28;20057;-49
2021/08/12 07:14:30;;;;;;;9.65;5.35;;;;;;;27.33;47.19;102020.22;4963159;28;20140;-49
2021/08/12 07:16:56;;;;;;;7.80;4.95;;;;;;;27.06;47.18;102019.47;4963505;28;20037;-50
2021/08/12 07:19:21;;;;;;;8.05;5.07;;;;;;;27.23;47.63;102017.03;4955357;28;20065;-47
2021/08/12 07:21:47;;;;;;;7.85;4.63;;;;;;;27.67;44.55;102017.16;4963872;28;20574;-51
2021/08/12 07:24:12;;;;;;;7.18;4.38;;;;;;;27.98;43.56;102016.81;4939195;28;20038;-46
2021/08/12 07:26:37;;;;;;;9.38;4.45;;;;;;;28.11;42.96;102026.09;4961587;28;20161;-47
2021/08/12 07:29:03;;;;;;;7.68;4.15;;;;;;;27.90;43.17;102026.94;4965085;28;20460;-50
2021/08/12 07:31:29;;;;;;;7.30;4.25;;;;;;;28.24;44.15;102017.47;4963585;28;20038;-48
2021/08/12 07:33:54;;;;;;;7.20;4.30;;;;;;;28.56;41.03;102025.97;4960165;28;20041;-48
2021/08/12 07:36:19;;;;;;;8.20;3.97;;;;;;;28.54;42.62;102034.09;4959716;28;20047;-50
2021/08/12 07:38:45;;;;;;;6.28;3.45;;;;;;;28.60;42.41;102033.84;4962461;28;20030;-48
2021/08/12 07:41:11;;;;;;;5.97;3.53;;;;;;;28.49;43.06;102028.03;4959704;28;20081;-47
2021/08/12 07:43:37;;;;;;;5.72;3.00;;;;;;;28.56;42.21;102029.53;4959782;28;20466;-48
2021/08/12 07:46:02;;;;;;;6.35;3.25;;;;;;;28.58;40.24;102024.97;4957996;28;20134;-49
2021/08/12 07:48:28;;;;;;;4.03;2.78;;;;;;;28.93;39.84;102020.75;4955541;28;20376;-46
2021/08/12 07:50:53;;;;;;;6.00;2.70;;;;;;;29.00;38.99;102026.72;4973532;28;20493;-46
2021/08/12 07:53:19;;;;;;;4.05;2.70;;;;;;;28.44;39.65;102030.03;4953741;28;20039;-47
2021/08/12 07:55:44;;;;;;;5.50;2.65;;;;;;;28.28;43.85;102018.25;4962100;28;20400;-48
2021/08/12 07:58:09;;;;;;;6.38;2.88;;;;;;;28.81;39.62;102026.66;4957012;28;20131;-47
2021/08/12 08:00:35;;;;;;;10.43;3.03;;;;;;;28.45;41.32;102023.75;4955159;28;20089;-49
2021/08/12 08:03:00;;;;;;;5.15;2.85;;;;;;;28.96;39.43;102031.38;4959594;28;20807;-47
2021/08/12 08:05:25;;;;;;;6.22;2.70;;;;;;;28.94;37.92;102027.00;4959904;28;20042;-52
2021/08/12 08:07:53;;;;;;;4.90;2.80;;;;;;;28.96;39.37;102026.00;4962877;28;20030;-50
2021/08/12 08:10:21;;;;;;;5.18;2.83;;;;;;;28.89;39.78;102027.22;4957776;28;20510;-49
2021/08/12 08:12:47;;;;;;;8.85;3.10;;;;;;;28.53;40.80;102028.78;4965096;28;20022;-48
2021/08/12 08:15:14;;;;;;;5.78;2.60;;;;;;;29.00;40.40;102032.09;4962319;28;20057;-47
2021/08/12 08:17:39;;;;;;;4.35;2.80;;;;;;;29.03;39.05;102029.28;4956364;28;20038;-51
2021/08/12 08:20:07;;;;;;;5.35;2.70;;;;;;;28.52;41.48;102032.41;4959988;28;20042;-51
2021/08/12 08:22:32;;;;;;;6.90;3.00;;;;;;;28.14;42.40;102031.34;4955887;28;20026;-47
2021/08/12 08:24:58;;;;;;;3.50;2.50;;;;;;;28.06;42.56;102036.97;4964202;28;20088;-48
2021/08/12 08:27:24;;;;;;;6.25;2.90;;;;;;;27.25;44.54;102039.28;4952954;28;20054;-46
2021/08/12 08:29:49;;;;;;;4.75;2.95;;;;;;;27.00;44.62;102031.28;4963167;28;20512;-48
2021/08/12 08:32:16;;;;;;;6.22;2.97;;;;;;;26.67;45.12;102036.00;4957570;28;20030;-47
2021/08/12 08:34:42;;;;;;;7.68;2.70;;;;;;;26.43;46.93;102036.84;4959803;28;20045;-46
2021/08/12 08:37:07;;;;;;;6.85;2.70;;;;;;;26.11;46.14;102037.91;4958736;28;20191;-46
2021/08/12 08:39:33;;;;;;;3.90;2.70;;;;;;;26.29;45.10;102036.44;4959684;28;20026;-46
2021/08/12 08:41:59;;;;;;;6.30;3.20;;;;;;;26.15;46.09;102039.56;4957408;28;20684;-46
2021/08/12 08:44:25;;;;;;;4.45;2.83;;;;;;;26.04;46.01;102041.72;4961525;28;20469;-48
2021/08/12 08:46:51;;;;;;;5.13;2.70;;;;;;;25.78;46.78;102042.53;4960503;28;20042;-48
2021/08/12 08:49:19;;;;;;;6.72;3.13;;;;;;;26.01;46.49;102038.25;4976329;28;20053;-46
2021/08/12 08:51:46;;;;;;;7.70;2.90;;;;;;;25.66;47.46;102039.38;4958011;28;20534;-46
2021/08/12 08:54:12;;;;;;;6.88;2.92;;;;;;;25.37;49.95;102045.56;4964455;28;20052;-47
2021/08/12 08:56:40;;;;;;;6.60;3.20;;;;;;;25.44;49.59;102037.31;4962239;28;20026;-50
2021/08/12 08:59:08;;;;;;;6.82;3.30;;;;;;;25.46;49.12;102038.16;4966218;28;20037;-47
2021/08/12 09:01:38;;;;;;;4.65;2.70;;;;;;;25.58;50.07;102036.94;4969766;28;20753;-47
2021/08/12 09:04:03;;;;;;;6.60;3.00;;;;;;;25.61;47.71;102046.66;4960910;28;20366;-46
2021/08/12 09:06:28;;;;;;;6.47;2.72;;;;;;;25.63;47.24;102034.97;4956388;28;20061;-47
2021/08/12 09:08:55;;;;;;;4.55;2.60;;;;;;;25.80;47.22;102038.00;4964367;28;20124;-53
2021/08/12 09:11:21;;;;;;;5.10;2.70;;;;;;;25.89;46.54;102038.66;4970842;28;20178;-51
2021/08/12 09:13:46;;;;;;;7.18;2.78;;;;;;;25.58;49.28;102041.38;4969726;28;20762;-48
2021/08/12 09:16:38;;;;;;;6.88;2.70;;;;;;;25.73;48.03;102046.28;4973664;28;20977;-47
2021/08/12 09:19:20;;;;;;;7.05;2.72;;;;;;;25.89;48.30;102052.00;4960202;28;20056;-48
2021/08/12 09:21:54;;;;;;;5.07;2.78;;;;;;;25.86;46.62;102045.81;4965285;28;20171;-51
2021/08/12 09:24:20;;;;;;;3.88;2.63;;;;;;;25.98;48.22;102043.72;4965331;28;20387;-47
2021/08/12 09:26:46;;;;;;;4.80;2.60;;;;;;;26.07;48.98;102048.75;4965384;28;20037;-46
2021/08/12 09:29:25;;;;;;;5.68;3.00;;;;;;;26.02;47.99;102040.00;4965853;28;20042;-48
2021/08/12 09:32:02;;;;;;;5.68;2.92;;;;;;;26.07;49.31;102046.94;4968388;28;20030;-48
2021/08/12 09:34:45;;;;;;;5.72;3.33;;;;;;;26.02;48.13;102043.56;4962159;28;20117;-48
2021/08/12 09:37:11;;;;;;;;;;;;;;;25.93;47.99;102045.63;4962578;28;20061;-47
2021/08/12 09:39:37;;;;;;;4.70;2.88;;;;;;;26.03;48.85;102044.44;4966994;28;19921;-49
2021/08/12 09:42:04;;;;;;;4.85;2.95;;;;;;;26.02;48.49;102040.88;4968213;28;20076;-47
2021/08/12 09:44:30;;;;;;;6.05;2.80;;;;;;;25.91;48.85;102052.84;4980052;28;20095;-47
2021/08/12 09:46:56;;;;;;;4.35;3.03;;;;;;;25.63;52.28;102053.69;4962568;28;20026;-48
2021/08/12 09:49:22;;;;;;;4.90;3.10;;;;;;;25.68;49.47;102046.41;4968051;28;20113;-47
2021/08/12 09:51:47;;;;;;;5.13;2.88;;;;;;;25.85;49.43;102065.47;4967779;28;20571;-47
2021/08/12 09:54:13;;;;;;;6.25;2.78;;;;;;;26.17;49.25;102053.72;4968332;28;20603;-46
2021/08/12 09:56:38;;;;;;;7.18;2.97;;;;;;;26.20;48.22;102055.44;4959543;28;21675;-48
2021/08/12 09:59:05;;;;;;;4.57;2.78;;;;;;;26.17;47.59;102055.53;4970492;28;20056;-48
2021/08/12 10:01:31;;;;;;;7.75;2.65;;;;;;;26.19;47.34;102053.69;4965766;28;20023;-46
2021/08/12 10:03:56;;;;;;;5.32;3.10;;;;;;;26.27;48.20;102042.78;4963349;28;20464;-47
2021/08/12 10:06:27;;;;;;;4.18;3.00;;;;;;;26.40;46.56;102034.31;4955272;28;20398;-49
2021/08/12 10:08:53;;;;;;;6.60;3.10;;;;;;;26.42;49.25;102037.78;4960852;28;20062;-46
2021/08/12 10:11:28;;;;;;;6.07;3.00;;;;;;;26.52;48.59;102044.59;4968722;28;20066;-47
2021/08/12 10:14:04;;;;;;;4.70;2.88;;;;;;;26.57;49.42;102052.44;4962703;28;20511;-46
2021/08/12 10:16:31;;;;;;;5.43;3.00;;;;;;;26.57;47.84;102037.28;4959379;28;20078;-47
2021/08/12 10:18:57;;;;;;;5.28;2.70;;;;;;;26.69;48.91;102046.66;4953955;28;20267;-48
2021/08/12 10:21:26;;;;;;;4.70;2.63;;;;;;;26.78;49.16;102043.66;4969616;28;20033;-48
2021/08/12 10:23:56;;;;;;;6.90;3.47;;;;;;;26.76;46.68;102037.50;4965845;28;20030;-47
2021/08/12 10:26:27;;;;;;;4.65;2.88;;;;;;;26.76;47.12;102036.63;4966082;28;20030;-48
2021/08/12 10:29:23;;;;;;;5.47;2.80;;;;;;;26.78;47.00;102045.44;4963354;28;20398;-47
2021/08/12 10:31:49;;;;;;;5.32;2.97;;;;;;;26.88;46.67;102046.88;4964941;28;20045;-49
2021/08/12 10:34:15;;;;;;;5.78;2.80;;;;;;;26.97;48.61;102049.25;4965422;28;20010;-48
2021/08/12 10:36:41;;;;;;;4.85;2.60;;;;;;;27.01;49.23;102040.19;4957885;28;20588;-49
2021/08/12 10:39:06;;;;;;;5.85;2.72;;;;;;;27.01;46.54;102046.44;4959317;28;20456;-50
2021/08/12 10:41:35;;;;;;;5.25;2.70;;;;;;;27.01;46.73;102040.19;4976788;28;20035;-46
2021/08/12 10:44:00;;;;;;;5.93;2.70;;;;;;;26.95;45.95;102035.94;4967657;28;20046;-47
2021/08/12 10:46:36;;;;;;;4.72;3.00;;;;;;;26.90;46.90;102045.03;4962767;28;20026;-48
2021/08/12 10:49:29;;;;;;;5.32;2.97;;;;;;;26.95;47.58;102046.66;4962267;28;20022;-46
2021/08/12 10:52:00;;;;;;;6.15;3.10;;;;;;;26.82;46.48;102047.09;4955378;28;20046;-50
2021/08/12 10:54:25;;;;;;;4.78;2.83;;;;;;;26.81;46.88;102040.00;4962035;28;20037;-48
2021/08/12 10:57:18;;;;;;;5.18;2.88;;;;;;;26.94;46.67;102049.38;4962646;28;20398;-52
2021/08/12 10:59:44;;;;;;;6.47;3.15;;;;;;;26.93;49.00;102047.63;4955564;28;20113;-51
2021/08/12 11:02:28;;;;;;;4.45;2.70;;;;;;;26.95;46.40;102037.75;4964590;28;20061;-47
2021/08/12 11:05:00;;;;;;;5.75;3.25;;;;;;;26.75;45.32;102048.25;4961921;28;20030;-51
2021/08/12 11:07:38;;;;;;;4.88;2.97;;;;;;;26.53;46.44;102046.31;4950427;28;21139;-52
2021/08/12 11:10:08;;;;;;;5.40;3.03;;;;;;;26.48;47.79;102055.41;4958730;28;20034;-46
2021/08/12 11:12:52;;;;;;;4.45;2.67;;;;;;;26.36;46.56;102045.13;4972223;28;20034;-47
2021/08/12 11:15:41;;;;;;;4.68;2.63;;;;;;;26.25;46.67;102056.19;4971523;28;20861;-48
2021/08/12 11:18:15;;;;;;;5.03;3.00;;;;;;;26.29;48.15;102060.50;4963990;28;20478;-47